createdAt,value
2019-02-06T00:01:15.819Z,5.49
2019-02-06T00:03:46.002Z,5.49
2019-02-06T00:06:16.289Z,5.49
2019-02-06T00:08:46.697Z,5.49
2019-02-06T00:11:17.309Z,5.51
2019-02-06T00:13:47.849Z,5.51
2019-02-06T00:16:18.157Z,5.51
2019-02-06T00:18:48.463Z,5.52
2019-02-06T00:21:20.673Z,5.51
2019-02-06T00:23:50.930Z,5.50
2019-02-06T00:26:21.029Z,5.50
2019-02-06T00:28:51.282Z,5.51
2019-02-06T00:31:21.475Z,5.51
2019-02-06T00:33:51.794Z,5.49
2019-02-06T00:36:22.068Z,5.48
2019-02-06T00:38:52.739Z,5.46
2019-02-06T00:41:22.954Z,5.45
2019-02-06T00:43:53.358Z,5.43
2019-02-06T00:46:23.613Z,5.41
2019-02-06T00:48:53.867Z,5.40
2019-02-06T00:51:24.093Z,5.40
2019-02-06T00:53:54.544Z,5.37
2019-02-06T00:56:24.891Z,5.32
2019-02-06T00:58:55.164Z,5.34
2019-02-06T01:01:25.682Z,5.34
2019-02-06T01:03:56.032Z,5.32
2019-02-06T01:06:26.673Z,5.31
2019-02-06T01:08:56.950Z,5.31
2019-02-06T01:11:27.207Z,5.31
2019-02-06T01:13:57.458Z,5.29
2019-02-06T01:16:27.788Z,5.29
2019-02-06T01:18:58.030Z,5.28
2019-02-06T01:21:28.643Z,5.29
2019-02-06T01:23:58.885Z,5.30
2019-02-06T01:26:29.132Z,5.30
2019-02-06T01:28:59.303Z,5.30
2019-02-06T01:31:31.045Z,5.31
2019-02-06T01:34:01.433Z,5.30
2019-02-06T01:36:31.772Z,5.31
2019-02-06T01:39:02.082Z,5.31
2019-02-06T01:41:32.297Z,5.31
2019-02-06T01:44:02.660Z,5.32
2019-02-06T01:46:33.007Z,5.32
2019-02-06T01:49:03.243Z,5.32
2019-02-06T01:51:33.541Z,5.33
2019-02-06T01:54:03.785Z,5.34
2019-02-06T01:56:42.406Z,5.33
2019-02-06T01:59:12.668Z,5.34
2019-02-06T02:01:42.936Z,5.34
2019-02-06T02:04:13.294Z,5.35
2019-02-06T02:06:43.520Z,5.34
2019-02-06T02:09:19.564Z,5.34
2019-02-06T02:11:49.966Z,5.34
2019-02-06T02:14:20.313Z,5.35
2019-02-06T02:16:51.236Z,5.33
2019-02-06T02:19:21.461Z,5.33
2019-02-06T02:21:51.783Z,5.34
2019-02-06T02:24:22.163Z,5.34
2019-02-06T02:26:52.429Z,5.32
2019-02-06T02:29:23.136Z,5.31
2019-02-06T02:31:53.541Z,5.31
2019-02-06T02:34:23.825Z,5.30
2019-02-06T02:36:54.068Z,5.29
2019-02-06T02:39:24.325Z,5.29
2019-02-06T02:41:54.579Z,5.30
2019-02-06T02:44:24.745Z,5.31
2019-02-06T02:46:57.454Z,5.32
2019-02-06T02:49:27.744Z,5.32
2019-02-06T02:51:58.135Z,5.29
2019-02-06T02:54:28.532Z,5.29
2019-02-06T02:56:59.147Z,5.29
2019-02-06T02:59:29.400Z,5.27
2019-02-06T03:02:10.926Z,5.26
2019-02-06T03:04:45.191Z,5.27
2019-02-06T03:07:15.462Z,5.25
2019-02-06T03:09:45.786Z,5.25
2019-02-06T03:12:16.041Z,5.26
2019-02-06T03:14:46.407Z,5.26
2019-02-06T03:17:16.683Z,5.28
2019-02-06T03:19:47.027Z,5.28
2019-02-06T03:22:17.727Z,5.30
2019-02-06T03:24:47.965Z,5.30
2019-02-06T03:27:18.203Z,5.30
2019-02-06T03:29:48.379Z,5.31
2019-02-06T03:32:18.626Z,5.33
2019-02-06T03:34:48.949Z,5.33
2019-02-06T03:37:19.205Z,5.31
2019-02-06T03:39:49.291Z,5.31
2019-02-06T03:42:22.134Z,5.30
2019-02-06T03:44:52.450Z,5.30
2019-02-06T03:47:22.660Z,5.29
2019-02-06T03:49:53.102Z,5.31
2019-02-06T03:52:23.350Z,5.31
2019-02-06T03:54:53.602Z,5.32
2019-02-06T03:57:23.914Z,5.31
2019-02-06T03:59:54.237Z,5.33
2019-02-06T04:02:24.576Z,5.34
2019-02-06T04:04:55.066Z,5.34
2019-02-06T04:07:25.329Z,5.35
2019-02-06T04:09:55.645Z,5.34
2019-02-06T04:12:25.906Z,5.35
2019-02-06T04:14:56.218Z,5.35
2019-02-06T04:17:26.393Z,5.34
2019-02-06T04:19:56.684Z,5.35
2019-02-06T04:22:26.886Z,5.35
2019-02-06T04:24:57.081Z,5.36
2019-02-06T04:27:27.296Z,5.36
2019-02-06T04:29:57.649Z,5.34
2019-02-06T04:32:28.398Z,5.38
2019-02-06T04:34:58.675Z,5.39
2019-02-06T04:37:28.881Z,5.43
2019-02-06T04:39:59.079Z,5.44
2019-02-06T04:42:29.227Z,5.44
2019-02-06T04:44:59.403Z,5.47
2019-02-06T04:47:30.019Z,5.48
2019-02-06T04:50:00.278Z,5.48
2019-02-06T04:52:30.632Z,5.51
2019-02-06T04:55:00.973Z,5.51
2019-02-06T04:57:31.173Z,5.52
2019-02-06T05:00:01.513Z,5.52
2019-02-06T05:02:31.833Z,5.54
2019-02-06T05:05:02.045Z,5.53
2019-02-06T05:07:32.465Z,5.54
2019-02-06T05:10:02.682Z,5.54
2019-02-06T05:12:32.973Z,5.54
2019-02-06T05:15:03.613Z,5.55
2019-02-06T05:17:33.803Z,5.56
2019-02-06T05:20:07.502Z,5.57
2019-02-06T05:22:37.714Z,5.56
2019-02-06T05:25:08.116Z,5.57
2019-02-06T05:27:38.639Z,5.56
2019-02-06T05:30:09.181Z,5.57
2019-02-06T05:32:42.795Z,5.57
2019-02-06T05:35:11.511Z,5.57
2019-02-06T05:37:41.916Z,5.58
2019-02-06T05:40:14.558Z,5.58
2019-02-06T05:42:46.385Z,5.58
2019-02-06T05:45:17.094Z,5.58
2019-02-06T05:47:47.583Z,5.58
2019-02-06T05:50:21.612Z,5.58
2019-02-06T05:52:52.214Z,5.57
2019-02-06T05:55:23.049Z,5.58
2019-02-06T05:57:53.813Z,5.56
2019-02-06T06:00:38.017Z,5.58
2019-02-06T06:03:08.643Z,5.57
2019-02-06T06:05:41.018Z,5.59
2019-02-06T06:08:11.359Z,5.61
2019-02-06T06:10:42.008Z,5.60
2019-02-06T06:13:12.385Z,5.59
2019-02-06T06:15:53.702Z,5.60
2019-02-06T06:18:24.400Z,5.61
2019-02-06T06:20:55.270Z,5.60
2019-02-06T06:23:26.030Z,5.56
2019-02-06T06:25:56.727Z,5.60
2019-02-06T06:28:29.392Z,5.61
2019-02-06T06:30:59.990Z,5.61
2019-02-06T06:33:36.818Z,5.61
2019-02-06T06:36:07.380Z,5.62
2019-02-06T06:38:38.072Z,5.62
2019-02-06T06:41:08.698Z,5.63
2019-02-06T06:43:39.408Z,5.61
2019-02-06T06:46:10.084Z,5.62
2019-02-06T06:48:40.933Z,5.62
2019-02-06T06:51:11.614Z,5.63
2019-02-06T06:53:42.271Z,5.64
2019-02-06T06:56:12.928Z,5.67
2019-02-06T06:58:43.512Z,5.68
2019-02-06T07:01:17.068Z,5.70
2019-02-06T07:03:47.818Z,5.70
2019-02-06T07:06:18.386Z,5.71
2019-02-06T07:08:49.189Z,5.70
2019-02-06T07:11:19.698Z,5.70
2019-02-06T07:13:53.231Z,5.73
2019-02-06T07:16:25.639Z,5.73
2019-02-06T07:18:55.920Z,5.71
2019-02-06T07:21:26.471Z,5.73
2019-02-06T07:23:58.774Z,5.72
2019-02-06T07:26:56.952Z,5.71
2019-02-06T07:29:27.470Z,5.70
2019-02-06T07:31:57.803Z,5.68
2019-02-06T07:34:28.536Z,5.66
2019-02-06T07:36:58.945Z,5.64
2019-02-06T07:39:29.495Z,5.60
2019-02-06T07:42:00.151Z,5.67
2019-02-06T07:44:30.651Z,5.67
2019-02-06T07:47:01.432Z,5.70
2019-02-06T07:49:33.923Z,5.70
2019-02-06T07:52:04.737Z,5.69
2019-02-06T07:54:35.464Z,5.71
2019-02-06T07:57:05.932Z,5.72
2019-02-06T07:59:36.694Z,5.74
2019-02-06T08:02:07.395Z,5.76
2019-02-06T08:04:38.048Z,5.77
2019-02-06T08:07:10.510Z,5.79
2019-02-06T08:09:41.300Z,5.80
2019-02-06T08:12:13.772Z,5.85
2019-02-06T08:14:44.353Z,5.89
2019-02-06T08:17:15.086Z,5.89
2019-02-06T08:19:45.846Z,5.88
2019-02-06T08:22:17.863Z,5.88
2019-02-06T08:24:51.167Z,5.93
2019-02-06T08:27:21.946Z,5.94
2019-02-06T08:29:52.788Z,5.92
2019-02-06T08:32:23.438Z,5.92
2019-02-06T08:34:54.433Z,5.88
2019-02-06T08:37:26.806Z,5.80
2019-02-06T08:39:57.537Z,5.68
2019-02-06T08:42:30.231Z,5.52
2019-02-06T08:45:01.087Z,5.44
2019-02-06T08:47:33.161Z,5.37
2019-02-06T08:50:03.758Z,5.30
2019-02-06T08:52:34.376Z,5.23
2019-02-06T08:55:06.102Z,5.19
2019-02-06T08:57:36.758Z,5.17
2019-02-06T09:00:09.812Z,5.21
2019-02-06T09:02:40.487Z,5.22
2019-02-06T09:05:11.239Z,5.22
2019-02-06T09:07:44.241Z,5.23
2019-02-06T09:10:18.264Z,5.28
2019-02-06T09:12:49.104Z,5.27
2019-02-06T09:15:20.030Z,5.26
2019-02-06T09:17:50.741Z,5.27
2019-02-06T09:20:24.125Z,5.29
2019-02-06T09:22:55.232Z,5.33
2019-02-06T09:25:25.948Z,5.36
2019-02-06T09:27:58.452Z,5.36
2019-02-06T09:30:31.110Z,5.34
2019-02-06T09:33:01.661Z,5.34
2019-02-06T09:35:31.963Z,5.35
2019-02-06T09:38:02.428Z,5.35
2019-02-06T09:40:33.227Z,5.35
2019-02-06T09:43:03.879Z,5.34
2019-02-06T09:45:39.625Z,5.31
2019-02-06T09:48:11.656Z,5.31
2019-02-06T09:50:43.644Z,5.31
2019-02-06T09:53:15.453Z,5.32
2019-02-06T09:55:45.831Z,5.32
2019-02-06T09:58:16.098Z,5.37
2019-02-06T10:00:46.811Z,5.40
2019-02-06T10:03:17.130Z,5.44
2019-02-06T10:05:47.525Z,5.52
2019-02-06T10:08:17.853Z,5.57
2019-02-06T10:10:48.331Z,5.61
2019-02-06T10:13:18.781Z,5.68
2019-02-06T10:15:51.834Z,5.70
2019-02-06T10:18:22.299Z,5.72
2019-02-06T10:20:53.472Z,5.72
2019-02-06T10:23:29.595Z,5.71
2019-02-06T10:25:59.952Z,5.71
2019-02-06T10:28:31.895Z,5.77
2019-02-06T10:31:05.005Z,5.81
2019-02-06T10:33:38.348Z,5.85
2019-02-06T10:36:08.757Z,5.86
2019-02-06T10:38:41.826Z,5.87
2019-02-06T10:41:12.078Z,5.85
2019-02-06T10:43:42.446Z,5.85
2019-02-06T10:46:18.315Z,5.87
2019-02-06T10:48:48.830Z,5.91
2019-02-06T10:51:19.191Z,5.96
2019-02-06T10:53:49.625Z,6.01
2019-02-06T10:56:22.090Z,6.03
2019-02-06T10:58:55.404Z,6.06
2019-02-06T11:01:30.472Z,6.11
2019-02-06T11:04:01.071Z,6.13
2019-02-06T11:06:31.598Z,6.13
2019-02-06T11:09:01.912Z,6.16
2019-02-06T11:11:36.328Z,6.16
2019-02-06T11:14:09.886Z,6.17
2019-02-06T11:16:40.257Z,6.16
2019-02-06T11:19:10.620Z,6.24
2019-02-06T11:21:42.111Z,6.28
2019-02-06T11:24:12.544Z,6.34
2019-02-06T11:26:42.929Z,6.39
2019-02-06T11:29:15.418Z,6.42
2019-02-06T11:31:45.859Z,6.44
2019-02-06T11:34:16.192Z,6.40
2019-02-06T11:36:47.657Z,6.42
2019-02-06T11:39:23.991Z,6.45
2019-02-06T11:41:54.340Z,6.47
2019-02-06T11:44:24.575Z,6.49
2019-02-06T11:46:54.858Z,6.53
2019-02-06T11:49:30.082Z,6.56
2019-02-06T11:52:00.507Z,6.57
2019-02-06T11:54:30.629Z,6.56
2019-02-06T11:57:04.279Z,6.58
2019-02-06T11:59:34.568Z,6.59
2019-02-06T12:02:04.965Z,6.60
2019-02-06T12:04:35.322Z,6.59
2019-02-06T12:07:06.384Z,6.59
2019-02-06T12:09:38.153Z,6.59
2019-02-06T12:12:08.393Z,6.62
2019-02-06T12:14:38.779Z,6.64
2019-02-06T12:17:09.011Z,6.63
2019-02-06T12:19:39.458Z,6.65
2019-02-06T12:22:09.801Z,6.72
2019-02-06T12:24:40.430Z,6.76
2019-02-06T12:27:10.952Z,6.78
2019-02-06T12:29:42.637Z,6.80
2019-02-06T12:32:12.941Z,6.77
2019-02-06T12:34:43.283Z,6.77
2019-02-06T12:37:13.632Z,6.77
2019-02-06T12:40:58.733Z,6.84
2019-02-06T12:56:44.549Z,7.56
2019-02-06T12:59:14.919Z,7.48
2019-02-06T13:01:45.583Z,7.45
2019-02-06T13:04:15.952Z,7.44
2019-02-06T13:06:46.230Z,7.45
2019-02-06T13:09:21.371Z,7.45
2019-02-06T13:11:54.262Z,7.46
2019-02-06T13:14:25.038Z,7.48
2019-02-06T13:16:58.225Z,7.49
2019-02-06T13:19:46.587Z,7.47
2019-02-06T13:22:55.522Z,7.45
2019-02-06T13:25:28.913Z,7.42
2019-02-06T13:28:01.670Z,7.41
2019-02-06T13:30:41.712Z,6.92
2019-02-06T13:33:11.837Z,7.41
2019-02-06T13:35:45.131Z,7.41
2019-02-06T13:38:26.249Z,7.38
2019-02-06T13:40:56.862Z,7.40
2019-02-06T13:43:28.841Z,7.41
2019-02-06T13:45:59.243Z,7.39
2019-02-06T13:48:33.938Z,7.39
2019-02-06T13:51:15.595Z,7.38
2019-02-06T13:53:36.628Z,7.35
2019-02-06T13:56:09.032Z,7.33
2019-02-06T13:59:12.206Z,7.33
2019-02-06T14:01:44.197Z,7.33
2019-02-06T14:04:14.644Z,7.33
2019-02-06T14:06:44.907Z,7.33
2019-02-06T14:09:22.623Z,7.33
2019-02-06T14:11:49.298Z,7.30
2019-02-06T14:14:21.708Z,7.30
2019-02-06T14:16:54.267Z,7.31
2019-02-06T14:19:24.658Z,7.29
2019-02-06T14:21:55.031Z,7.28
2019-02-06T14:24:50.572Z,7.28
2019-02-06T14:28:04.371Z,7.25
2019-02-06T14:31:29.832Z,7.20
2019-02-06T14:34:39.657Z,7.17
2019-02-06T14:37:52.749Z,7.16
2019-02-06T14:40:51.189Z,7.19
2019-02-06T14:43:42.224Z,7.22
2019-02-06T14:47:22.115Z,7.21
2019-02-06T14:50:49.469Z,7.23
2019-02-06T14:54:04.713Z,7.20
2019-02-06T14:57:25.539Z,7.18
2019-02-06T15:01:00.127Z,7.20
2019-02-06T15:04:49.170Z,7.19
2019-02-06T15:07:54.977Z,7.16
2019-02-06T15:11:20.118Z,7.17
2019-02-06T15:14:26.842Z,7.20
2019-02-06T15:17:37.571Z,7.21
2019-02-06T15:20:27.235Z,7.22
2019-02-06T15:23:58.401Z,7.23
2019-02-06T15:27:13.829Z,7.25
2019-02-06T15:30:26.786Z,7.24
2019-02-06T15:34:10.884Z,7.24
2019-02-06T15:37:15.481Z,7.25
2019-02-06T15:40:43.064Z,7.22
2019-02-06T15:44:03.352Z,7.20
2019-02-06T15:47:17.604Z,7.17
2019-02-06T15:50:44.878Z,7.15
2019-02-06T15:54:01.490Z,7.16
2019-02-06T15:57:36.553Z,7.14
2019-02-06T16:00:56.038Z,7.12
2019-02-06T16:04:56.207Z,7.10
2019-02-06T16:07:55.811Z,7.08
2019-02-06T16:11:42.653Z,7.02
2019-02-06T16:14:43.240Z,7.03
2019-02-06T16:18:01.062Z,7.00
2019-02-06T16:21:25.724Z,7.00
2019-02-06T16:24:27.405Z,6.99
2019-02-06T16:28:13.092Z,6.95
2019-02-06T16:31:13.917Z,6.97
2019-02-06T16:34:44.269Z,6.95
2019-02-06T16:38:01.014Z,6.94
2019-02-06T16:41:36.062Z,6.94
2019-02-06T16:44:43.022Z,6.94
2019-02-06T16:48:00.368Z,6.93
2019-02-06T16:51:13.591Z,6.93
2019-02-06T16:54:39.108Z,6.92
2019-02-06T16:58:04.765Z,6.91
2019-02-06T17:01:20.660Z,6.91
2019-02-06T17:04:46.488Z,6.90
2019-02-06T17:08:05.116Z,6.91
2019-02-06T17:11:49.139Z,6.90
2019-02-06T17:15:26.519Z,6.94
2019-02-06T17:18:42.876Z,6.93
2019-02-06T17:22:11.025Z,6.92
2019-02-06T17:25:46.412Z,6.93
2019-02-06T17:28:39.010Z,6.93
2019-02-06T17:31:58.970Z,6.92
2019-02-06T17:35:05.095Z,6.92
2019-02-06T17:38:44.493Z,6.96
2019-02-06T17:42:18.438Z,6.98
2019-02-06T17:46:04.203Z,7.00
2019-02-06T17:49:37.192Z,6.99
2019-02-06T17:52:48.958Z,6.97
2019-02-06T17:55:26.158Z,6.99
2019-02-06T17:57:59.567Z,7.01
2019-02-06T18:01:07.644Z,7.02
2019-02-06T18:03:55.177Z,7.02
2019-02-06T18:06:25.461Z,7.02
2019-02-06T18:08:57.232Z,7.04
2019-02-06T18:11:27.598Z,7.07
2019-02-06T18:13:57.833Z,7.08
2019-02-06T18:16:28.867Z,7.08
2019-02-06T18:18:59.199Z,7.09
2019-02-06T18:21:29.587Z,7.09
2019-02-06T18:23:59.877Z,7.09
2019-02-06T18:26:30.801Z,7.08
2019-02-06T18:29:01.191Z,7.07
2019-02-06T18:31:31.487Z,7.06
2019-02-06T18:34:02.177Z,7.07
2019-02-06T18:36:32.633Z,7.04
2019-02-06T18:39:04.564Z,7.01
2019-02-06T18:41:35.551Z,6.99
2019-02-06T18:44:07.016Z,7.01
2019-02-06T18:46:37.518Z,7.01
2019-02-06T18:49:09.350Z,7.00
2019-02-06T18:51:39.773Z,7.02
2019-02-06T18:54:10.923Z,7.03
2019-02-06T18:56:41.371Z,7.03
2019-02-06T18:59:11.805Z,7.06
2019-02-06T19:01:42.160Z,7.06
2019-02-06T19:04:19.186Z,7.07
2019-02-06T19:06:49.856Z,7.07
2019-02-06T19:09:20.317Z,7.07
2019-02-06T19:11:50.708Z,7.09
2019-02-06T19:14:21.131Z,7.10
2019-02-06T19:16:51.819Z,7.11
2019-02-06T19:19:25.478Z,7.12
2019-02-06T19:21:54.229Z,7.13
2019-02-06T19:24:24.561Z,7.13
2019-02-06T19:26:54.855Z,7.13
2019-02-06T19:29:25.626Z,7.16
2019-02-06T19:31:55.996Z,7.16
2019-02-06T19:34:26.310Z,7.17
2019-02-06T19:36:56.665Z,7.17
2019-02-06T19:39:27.129Z,7.17
2019-02-06T19:41:58.799Z,7.19
2019-02-06T19:44:31.513Z,7.19
2019-02-06T19:47:01.862Z,7.19
2019-02-06T19:49:32.253Z,7.21
2019-02-06T19:52:02.500Z,7.22
2019-02-06T19:54:32.907Z,7.23
2019-02-06T19:57:03.297Z,7.24
2019-02-06T19:59:33.580Z,7.24
2019-02-06T20:02:03.950Z,7.25
2019-02-06T20:04:34.203Z,7.25
2019-02-06T20:07:04.649Z,7.26
2019-02-06T20:09:35.069Z,7.26
2019-02-06T20:12:05.374Z,7.25
2019-02-06T20:14:35.683Z,7.26
2019-02-06T20:17:07.111Z,7.26
2019-02-06T20:19:37.431Z,7.24
2019-02-06T20:22:07.840Z,7.26
2019-02-06T20:24:37.976Z,7.26
2019-02-06T20:27:08.153Z,7.26
2019-02-06T20:29:38.443Z,7.25
2019-02-06T20:32:09.081Z,7.25
2019-02-06T20:34:39.409Z,7.24
2019-02-06T20:37:09.735Z,7.25
2019-02-06T20:39:40.090Z,7.26
2019-02-06T20:42:10.525Z,7.28
2019-02-06T20:44:40.841Z,7.28
2019-02-06T20:47:11.372Z,7.29
2019-02-06T20:49:41.748Z,7.30
2019-02-06T20:52:12.023Z,7.31
2019-02-06T20:54:42.188Z,7.33
2019-02-06T20:57:15.756Z,7.35
2019-02-06T20:59:46.292Z,7.35
2019-02-06T21:02:16.987Z,7.36
2019-02-06T21:04:47.236Z,7.37
2019-02-06T21:07:20.071Z,7.37
2019-02-06T21:09:50.971Z,7.38
2019-02-06T21:12:21.341Z,7.37
2019-02-06T21:14:51.728Z,7.39
2019-02-06T21:17:22.048Z,7.39
2019-02-06T21:19:52.387Z,7.40
2019-02-06T21:22:22.762Z,7.41
2019-02-06T21:24:53.054Z,7.42
2019-02-06T21:27:23.292Z,7.43
2019-02-06T21:29:53.835Z,7.44
2019-02-06T21:32:24.259Z,7.44
2019-02-06T21:34:54.388Z,7.44
2019-02-06T21:37:27.048Z,7.45
2019-02-06T21:39:56.655Z,7.45
2019-02-06T21:42:26.993Z,7.45
2019-02-06T21:44:59.892Z,7.46
2019-02-06T21:47:31.045Z,7.46
2019-02-06T21:50:05.934Z,7.47
2019-02-06T21:52:38.127Z,7.48
2019-02-06T21:55:10.078Z,7.48
2019-02-06T21:57:40.471Z,7.49
2019-02-06T22:00:21.486Z,7.49
2019-02-06T22:02:55.250Z,7.49
2019-02-06T22:05:25.745Z,7.49
2019-02-06T22:07:56.103Z,7.52
2019-02-06T22:10:26.926Z,7.52
2019-02-06T22:12:57.366Z,7.54
2019-02-06T22:15:29.368Z,7.54
2019-02-06T22:17:59.736Z,7.54
2019-02-06T22:20:30.473Z,7.54
2019-02-06T22:23:00.792Z,7.55
2019-02-06T22:25:32.868Z,7.57
2019-02-06T22:28:03.175Z,7.56
2019-02-06T22:30:33.534Z,7.55
2019-02-06T22:33:05.270Z,7.56
2019-02-06T22:35:35.691Z,7.56
2019-02-06T22:38:08.307Z,7.55
2019-02-06T22:40:38.582Z,7.55
2019-02-06T22:43:08.805Z,7.55
2019-02-06T22:45:39.102Z,7.55
2019-02-06T22:48:09.472Z,7.56
2019-02-06T22:50:39.977Z,7.57
2019-02-06T22:53:10.370Z,7.59
2019-02-06T22:55:40.843Z,7.59
2019-02-06T22:58:11.262Z,7.60
2019-02-06T23:01:15.203Z,7.60
2019-02-06T23:03:48.289Z,7.60
2019-02-06T23:06:18.692Z,7.59
2019-02-06T23:08:49.077Z,7.60
2019-02-06T23:11:19.482Z,7.61
2019-02-06T23:13:49.861Z,7.63
2019-02-06T23:16:20.097Z,7.66
2019-02-06T23:18:52.398Z,7.66
2019-02-06T23:21:22.982Z,7.68
2019-02-06T23:23:53.270Z,7.67
2019-02-06T23:26:23.414Z,7.69
2019-02-06T23:28:53.683Z,7.68
2019-02-06T23:31:23.966Z,7.70
2019-02-06T23:33:54.717Z,7.71
2019-02-06T23:36:25.017Z,7.72
2019-02-06T23:38:55.420Z,7.72
2019-02-06T23:41:25.682Z,7.72
2019-02-06T23:43:55.955Z,7.72
2019-02-06T23:46:26.323Z,7.75
2019-02-06T23:48:56.648Z,7.76
2019-02-06T23:51:26.907Z,7.75
2019-02-06T23:53:57.085Z,7.77
2019-02-06T23:56:27.343Z,7.78
2019-02-06T23:58:58.612Z,7.77
